createdAt,value
2019-06-27T00:02:31.668Z,15.80
2019-06-27T00:05:02.595Z,17.63
2019-06-27T00:07:34.701Z,16.30
2019-06-27T00:10:04.627Z,16.47
2019-06-27T00:12:33.728Z,16.97
2019-06-27T00:15:04.586Z,15.70
2019-06-27T00:17:35.708Z,15.07
2019-06-27T00:20:04.957Z,15.13
2019-06-27T00:22:41.072Z,18.97
2019-06-27T00:25:07.671Z,19.67
2019-06-27T00:27:37.962Z,17.30
2019-06-27T00:30:08.630Z,16.17
2019-06-27T00:32:40.561Z,17.40
2019-06-27T00:35:11.326Z,17.13
2019-06-27T00:37:45.199Z,17.10
2019-06-27T00:40:18.402Z,15.70
2019-06-27T00:42:47.525Z,16.07
2019-06-27T00:45:21.397Z,16.03
2019-06-27T00:47:54.016Z,15.20
2019-06-27T00:50:23.287Z,15.80
2019-06-27T00:52:52.392Z,17.47
2019-06-27T00:55:21.542Z,17.10
2019-06-27T00:57:50.640Z,17.20
2019-06-27T01:00:21.355Z,16.90
2019-06-27T01:02:50.513Z,16.60
2019-06-27T01:05:19.657Z,17.40
2019-06-27T01:07:48.783Z,17.53
2019-06-27T01:10:18.801Z,17.33
2019-06-27T01:12:48.871Z,20.50
2019-06-27T01:15:18.171Z,17.27
2019-06-27T01:17:47.333Z,16.10
2019-06-27T01:20:18.229Z,16.53
2019-06-27T01:22:48.969Z,14.97
2019-06-27T01:25:19.101Z,16.10
2019-06-27T01:27:48.206Z,17.10
2019-06-27T01:30:20.092Z,16.40
2019-06-27T01:32:54.378Z,15.10
2019-06-27T01:35:23.518Z,16.50
2019-06-27T01:37:52.606Z,15.03
2019-06-27T01:40:21.779Z,15.83
2019-06-27T01:42:52.226Z,17.47
2019-06-27T01:45:36.991Z,16.50
2019-06-27T01:48:06.129Z,16.17
2019-06-27T01:50:37.045Z,16.97
2019-06-27T01:53:07.259Z,17.40
2019-06-27T01:55:39.022Z,16.50
2019-06-27T01:58:09.389Z,16.63
2019-06-27T02:00:40.163Z,16.30
2019-06-27T02:03:11.179Z,16.10
2019-06-27T02:05:42.081Z,15.67
2019-06-27T02:08:11.192Z,16.00
2019-06-27T02:10:41.694Z,16.00
2019-06-27T02:13:11.023Z,16.00
2019-06-27T02:15:43.296Z,15.87
2019-06-27T02:18:12.433Z,16.20
2019-06-27T02:20:41.544Z,17.13
2019-06-27T02:23:10.715Z,17.30
2019-06-27T02:25:39.900Z,16.77
2019-06-27T02:28:09.041Z,17.13
2019-06-27T02:30:50.695Z,18.07
2019-06-27T02:33:19.844Z,17.03
2019-06-27T02:35:50.326Z,17.83
2019-06-27T02:38:23.565Z,18.20
2019-06-27T02:40:58.738Z,17.80
2019-06-27T02:43:30.067Z,16.57
2019-06-27T02:45:59.249Z,19.50
2019-06-27T02:48:32.966Z,17.30
2019-06-27T02:51:02.195Z,17.27
2019-06-27T02:53:33.273Z,17.60
2019-06-27T02:56:02.380Z,18.33
2019-06-27T02:58:33.048Z,18.63
2019-06-27T03:01:02.438Z,16.90
2019-06-27T03:03:33.827Z,17.30
2019-06-27T03:06:04.866Z,17.70
2019-06-27T03:08:34.062Z,18.77
2019-06-27T03:11:07.106Z,17.33
2019-06-27T03:13:40.647Z,17.23
2019-06-27T03:16:10.285Z,18.93
2019-06-27T03:18:39.828Z,18.30
2019-06-27T03:21:08.986Z,18.97
2019-06-27T03:23:38.100Z,19.20
2019-06-27T03:26:07.232Z,19.10
2019-06-27T03:28:51.851Z,19.17
2019-06-27T03:31:09.303Z,18.33
2019-06-27T03:33:40.286Z,17.33
2019-06-27T03:36:09.428Z,18.60
2019-06-27T03:38:38.768Z,20.30
2019-06-27T03:41:08.159Z,19.43
2019-06-27T03:43:41.274Z,18.47
2019-06-27T03:46:10.762Z,19.93
2019-06-27T03:48:39.886Z,18.60
2019-06-27T03:51:12.480Z,18.60
2019-06-27T03:53:41.689Z,19.50
2019-06-27T03:56:13.181Z,20.37
2019-06-27T03:58:44.134Z,20.70
2019-06-27T04:01:14.450Z,17.70
2019-06-27T04:03:46.804Z,20.83
2019-06-27T04:06:16.000Z,18.27
2019-06-27T04:08:45.129Z,19.73
2019-06-27T04:11:17.114Z,20.63
2019-06-27T04:13:50.243Z,20.63
2019-06-27T04:16:21.332Z,20.60
2019-06-27T04:18:52.765Z,20.90
2019-06-27T04:21:25.348Z,21.10
2019-06-27T04:23:54.606Z,21.70
2019-06-27T04:26:25.008Z,21.53
2019-06-27T04:28:55.816Z,21.10
2019-06-27T04:31:26.842Z,21.10
2019-06-27T04:33:55.972Z,21.27
2019-06-27T04:36:29.096Z,22.00
2019-06-27T04:38:59.339Z,20.03
2019-06-27T04:41:30.124Z,19.80
2019-06-27T04:44:02.004Z,19.80
2019-06-27T04:46:31.343Z,19.33
2019-06-27T04:49:05.097Z,19.20
2019-06-27T04:51:34.572Z,19.70
2019-06-27T04:54:06.199Z,19.10
2019-06-27T04:56:38.006Z,17.60
2019-06-27T04:59:07.290Z,18.67
2019-06-27T05:01:39.149Z,19.10
2019-06-27T05:04:11.446Z,18.00
2019-06-27T05:06:40.623Z,17.63
2019-06-27T05:09:10.952Z,17.90
2019-06-27T05:11:40.538Z,21.37
2019-06-27T05:14:09.669Z,19.57
2019-06-27T05:16:38.762Z,19.10
2019-06-27T05:19:08.315Z,18.30
2019-06-27T05:21:45.787Z,20.17
2019-06-27T05:24:16.328Z,19.20
2019-06-27T05:26:45.432Z,19.83
2019-06-27T05:29:16.355Z,18.30
2019-06-27T05:31:52.801Z,21.00
2019-06-27T05:34:26.632Z,17.57
2019-06-27T05:36:58.670Z,20.80
2019-06-27T05:39:35.303Z,21.20
2019-06-27T05:42:04.836Z,20.00
2019-06-27T05:44:38.595Z,20.60
2019-06-27T05:47:10.796Z,20.40
2019-06-27T05:49:46.810Z,20.10
2019-06-27T05:52:16.349Z,20.07
2019-06-27T05:54:48.803Z,20.23
2019-06-27T05:57:19.184Z,20.47
2019-06-27T05:59:56.944Z,19.30
2019-06-27T06:02:27.305Z,19.43
2019-06-27T06:05:00.222Z,21.20
2019-06-27T06:07:31.045Z,21.20
2019-06-27T06:10:00.209Z,18.70
2019-06-27T06:12:29.313Z,20.17
2019-06-27T06:14:58.451Z,20.40
2019-06-27T06:17:29.957Z,20.03
2019-06-27T06:20:09.806Z,20.43
2019-06-27T06:22:45.680Z,20.03
2019-06-27T06:25:15.965Z,20.43
2019-06-27T06:27:47.972Z,20.70
2019-06-27T06:30:17.944Z,21.20
2019-06-27T06:32:47.049Z,22.03
2019-06-27T06:35:17.721Z,19.47
2019-06-27T06:37:46.916Z,21.87
2019-06-27T06:40:16.709Z,19.10
2019-06-27T06:42:48.791Z,20.40
2019-06-27T06:45:17.943Z,20.40
2019-06-27T06:47:47.965Z,22.87
2019-06-27T06:50:17.696Z,21.47
2019-06-27T06:52:47.058Z,21.43
2019-06-27T06:55:21.044Z,20.57
2019-06-27T06:57:51.739Z,20.40
2019-06-27T07:00:22.589Z,22.73
2019-06-27T07:02:53.873Z,22.73
2019-06-27T07:05:27.779Z,21.20
2019-06-27T07:07:59.178Z,21.30
2019-06-27T07:10:31.560Z,22.63
2019-06-27T07:13:05.428Z,22.60
2019-06-27T07:15:37.707Z,21.73
2019-06-27T07:18:07.600Z,22.00
2019-06-27T07:20:37.503Z,21.67
2019-06-27T07:23:11.783Z,22.60
2019-06-27T07:25:46.290Z,21.43
2019-06-27T07:28:15.440Z,21.20
2019-06-27T07:30:47.071Z,21.50
2019-06-27T07:33:16.564Z,21.33
2019-06-27T07:35:51.185Z,21.73
2019-06-27T07:38:21.564Z,21.60
2019-06-27T07:40:51.693Z,22.90
2019-06-27T07:43:20.810Z,21.40
2019-06-27T07:45:53.901Z,21.97
2019-06-27T07:48:23.177Z,22.77
2019-06-27T07:51:01.545Z,23.90
2019-06-27T07:53:30.806Z,24.10
2019-06-27T07:56:01.561Z,23.13
2019-06-27T07:58:30.758Z,24.97
2019-06-27T08:01:00.661Z,21.97
2019-06-27T08:03:29.858Z,24.07
2019-06-27T08:06:00.243Z,23.70
2019-06-27T08:08:33.670Z,23.60
2019-06-27T08:11:06.190Z,23.50
2019-06-27T08:13:36.450Z,23.30
2019-06-27T08:16:05.538Z,24.10
2019-06-27T08:18:34.721Z,22.80
2019-06-27T08:21:13.274Z,25.20
2019-06-27T08:23:44.340Z,23.53
2019-06-27T08:26:13.747Z,23.93
2019-06-27T08:28:45.858Z,22.93
2019-06-27T08:31:17.701Z,22.37
2019-06-27T08:33:47.165Z,23.53
2019-06-27T08:36:18.591Z,23.27
2019-06-27T08:38:48.055Z,22.83
2019-06-27T08:41:17.196Z,24.30
2019-06-27T08:43:49.029Z,21.43
2019-06-27T08:46:20.676Z,23.20
2019-06-27T08:48:55.329Z,24.47
2019-06-27T08:51:24.460Z,22.60
2019-06-27T08:53:56.670Z,20.83
2019-06-27T08:56:37.049Z,21.40
2019-06-27T08:59:11.239Z,24.80
2019-06-27T09:02:07.844Z,23.40
2019-06-27T09:04:27.558Z,24.13
2019-06-27T09:06:58.743Z,22.90
2019-06-27T09:09:31.876Z,23.07
2019-06-27T09:12:04.355Z,22.63
2019-06-27T09:14:33.542Z,22.43
2019-06-27T09:17:04.542Z,23.50
2019-06-27T09:19:36.588Z,22.37
2019-06-27T09:22:05.758Z,24.30
2019-06-27T09:24:38.787Z,22.67
2019-06-27T09:27:08.101Z,21.80
2019-06-27T09:29:37.367Z,22.10
2019-06-27T09:32:06.952Z,21.80
2019-06-27T09:34:36.097Z,22.20
2019-06-27T09:37:10.097Z,20.97
2019-06-27T09:39:43.165Z,22.50
2019-06-27T09:42:12.404Z,21.40
2019-06-27T09:44:42.353Z,23.80
2019-06-27T09:47:13.670Z,20.20
2019-06-27T09:49:45.305Z,21.10
2019-06-27T09:52:14.517Z,21.60
2019-06-27T09:54:43.777Z,19.80
2019-06-27T09:57:12.885Z,19.57
2019-06-27T09:59:43.176Z,20.07
2019-06-27T10:02:17.092Z,21.17
2019-06-27T10:04:46.215Z,19.83
2019-06-27T10:07:15.648Z,19.43
2019-06-27T10:09:53.899Z,21.50
2019-06-27T10:12:23.030Z,20.17
2019-06-27T10:14:52.505Z,20.97
2019-06-27T10:17:24.026Z,19.00
2019-06-27T10:19:54.800Z,19.40
2019-06-27T10:22:28.763Z,20.53
2019-06-27T10:24:58.645Z,21.40
2019-06-27T10:27:34.146Z,19.90
2019-06-27T10:30:04.698Z,21.70
2019-06-27T10:32:39.538Z,20.40
2019-06-27T10:35:10.012Z,20.50
2019-06-27T10:37:42.090Z,18.50
2019-06-27T10:40:18.241Z,16.67
2019-06-27T10:42:49.500Z,16.40
2019-06-27T10:45:25.309Z,17.32
2019-06-27T10:47:56.910Z,18.60
2019-06-27T10:50:29.156Z,15.57
2019-06-27T10:52:58.283Z,16.50
2019-06-27T10:55:28.647Z,14.93
2019-06-27T10:57:58.115Z,15.28
2019-06-27T11:00:28.513Z,14.83
2019-06-27T11:03:14.382Z,15.80
2019-06-27T11:05:32.823Z,13.05
2019-06-27T11:08:05.103Z,14.93
2019-06-27T11:10:37.370Z,15.10
2019-06-27T11:13:06.522Z,14.90
2019-06-27T11:15:35.614Z,12.85
2019-06-27T11:18:05.066Z,14.63
2019-06-27T11:20:35.083Z,13.70
2019-06-27T11:23:05.869Z,12.43
2019-06-27T11:25:35.032Z,14.80
2019-06-27T11:28:05.893Z,14.45
2019-06-27T11:30:39.892Z,15.00
2019-06-27T11:33:31.339Z,15.68
2019-06-27T11:35:47.923Z,14.15
2019-06-27T11:38:17.191Z,14.55
2019-06-27T11:40:48.731Z,13.98
2019-06-27T11:43:24.135Z,15.08
2019-06-27T11:45:53.347Z,15.18
2019-06-27T11:48:23.400Z,15.20
2019-06-27T11:50:54.383Z,15.05
2019-06-27T11:53:23.802Z,14.80
2019-06-27T11:55:58.444Z,14.95
2019-06-27T11:58:30.086Z,16.07
2019-06-27T12:01:00.236Z,14.68
2019-06-27T12:03:29.915Z,16.65
2019-06-27T12:05:59.207Z,16.17
2019-06-27T12:08:29.421Z,17.87
2019-06-27T12:10:58.648Z,17.27
2019-06-27T12:13:32.863Z,17.87
2019-06-27T12:16:06.999Z,14.20
2019-06-27T12:18:42.976Z,15.83
2019-06-27T12:21:14.941Z,15.55
2019-06-27T12:23:50.282Z,15.60
2019-06-27T12:26:19.685Z,14.38
2019-06-27T12:28:49.370Z,14.00
2019-06-27T12:31:21.014Z,15.78
2019-06-27T12:34:05.744Z,15.25
2019-06-27T12:36:22.465Z,16.75
2019-06-27T12:38:54.714Z,15.80
2019-06-27T12:41:25.890Z,13.62
2019-06-27T12:43:59.790Z,15.20
2019-06-27T12:46:30.033Z,16.65
2019-06-27T12:48:59.698Z,15.93
2019-06-27T12:51:36.260Z,16.00
2019-06-27T12:54:08.526Z,16.93
2019-06-27T12:56:41.164Z,16.15
2019-06-27T12:59:12.145Z,15.85
2019-06-27T13:01:41.354Z,14.83
2019-06-27T13:04:22.977Z,15.32
2019-06-27T13:06:54.433Z,15.38
2019-06-27T13:09:24.551Z,14.28
2019-06-27T13:11:55.704Z,16.32
2019-06-27T13:14:24.822Z,16.93
2019-06-27T13:16:58.157Z,15.90
2019-06-27T13:19:30.956Z,16.87
2019-06-27T13:22:01.681Z,19.27
2019-06-27T13:24:31.990Z,17.77
2019-06-27T13:27:04.106Z,17.65
2019-06-27T13:29:33.811Z,17.17
2019-06-27T13:32:03.038Z,18.02
2019-06-27T13:34:40.249Z,18.60
2019-06-27T13:37:03.164Z,18.40
2019-06-27T13:39:33.279Z,16.40
2019-06-27T13:42:03.554Z,18.27
2019-06-27T13:44:36.996Z,18.50
2019-06-27T13:47:09.020Z,14.07
2019-06-27T13:49:38.519Z,17.10
2019-06-27T13:52:07.988Z,17.75
2019-06-27T13:54:39.278Z,17.12
2019-06-27T13:57:09.068Z,17.45
2019-06-27T13:59:40.737Z,17.15
2019-06-27T14:02:11.020Z,17.52
2019-06-27T14:04:52.939Z,16.80
2019-06-27T14:07:10.921Z,16.35
2019-06-27T14:09:51.422Z,17.55
2019-06-27T14:12:11.718Z,16.32
2019-06-27T14:14:58.779Z,16.67
2019-06-27T14:17:15.667Z,17.07
2019-06-27T14:19:50.572Z,17.23
2019-06-27T14:22:32.942Z,16.57
2019-06-27T14:24:53.576Z,15.78
2019-06-27T14:27:26.537Z,14.80
2019-06-27T14:29:56.759Z,14.10
2019-06-27T14:32:33.115Z,15.75
2019-06-27T14:35:14.625Z,15.90
2019-06-27T14:37:33.806Z,14.28
2019-06-27T14:40:07.362Z,15.15
2019-06-27T14:42:37.073Z,14.55
2019-06-27T14:45:08.877Z,13.20
2019-06-27T14:47:39.838Z,12.78
2019-06-27T14:50:10.919Z,14.20
2019-06-27T14:52:40.039Z,14.80
2019-06-27T14:55:15.894Z,14.20
2019-06-27T14:57:45.358Z,13.15
2019-06-27T15:00:21.886Z,14.10
2019-06-27T15:02:53.442Z,14.43
2019-06-27T15:05:32.610Z,13.20
2019-06-27T15:07:55.864Z,13.75
2019-06-27T15:10:28.774Z,13.15
2019-06-27T15:13:03.820Z,12.55
2019-06-27T15:15:37.883Z,13.48
2019-06-27T15:18:07.768Z,13.95
2019-06-27T15:20:37.382Z,13.88
2019-06-27T15:23:11.102Z,12.30
2019-06-27T15:25:43.259Z,11.55
2019-06-27T15:28:12.876Z,10.90
2019-06-27T15:30:43.739Z,12.95
2019-06-27T15:33:17.303Z,12.60
2019-06-27T15:35:52.364Z,10.85
2019-06-27T15:38:24.581Z,12.40
2019-06-27T15:40:55.417Z,11.05
2019-06-27T15:43:27.150Z,12.20
2019-06-27T15:45:56.285Z,12.50
2019-06-27T15:48:25.755Z,11.40
2019-06-27T15:50:56.799Z,9.88
2019-06-27T15:53:25.901Z,10.30
2019-06-27T15:55:55.272Z,11.35
2019-06-27T15:58:28.324Z,11.00
2019-06-27T16:01:06.558Z,10.40
2019-06-27T16:03:35.789Z,8.95
2019-06-27T16:06:10.251Z,9.28
2019-06-27T16:08:36.782Z,8.30
2019-06-27T16:11:05.914Z,10.00
2019-06-27T16:13:35.220Z,9.05
2019-06-27T16:16:05.822Z,9.28
2019-06-27T16:18:48.982Z,8.60
2019-06-27T16:21:20.921Z,7.95
2019-06-27T16:23:52.942Z,8.30
2019-06-27T16:26:25.448Z,10.08
2019-06-27T16:28:55.194Z,8.88
2019-06-27T16:31:28.440Z,9.35
2019-06-27T16:33:57.545Z,8.88
2019-06-27T16:36:26.691Z,8.55
2019-06-27T16:38:55.823Z,9.30
2019-06-27T16:41:26.185Z,8.80
2019-06-27T16:44:03.724Z,9.43
2019-06-27T16:46:34.078Z,8.48
2019-06-27T16:49:04.928Z,8.25
2019-06-27T16:51:34.025Z,8.18
2019-06-27T16:54:04.927Z,10.43
2019-06-27T16:56:34.063Z,9.35
2019-06-27T16:59:05.052Z,7.78
2019-06-27T17:01:34.189Z,8.48
2019-06-27T17:04:05.623Z,8.65
2019-06-27T17:06:41.980Z,8.40
2019-06-27T17:09:09.217Z,8.33
2019-06-27T17:11:38.438Z,7.53
2019-06-27T17:14:07.526Z,7.30
2019-06-27T17:16:36.701Z,7.30
2019-06-27T17:19:08.664Z,6.65
2019-06-27T17:21:39.056Z,6.73
2019-06-27T17:24:13.419Z,6.00
2019-06-27T17:26:47.027Z,4.60
2019-06-27T17:29:18.566Z,5.07
2019-06-27T17:31:47.890Z,5.00
2019-06-27T17:34:16.997Z,4.47
2019-06-27T17:36:56.974Z,4.60
2019-06-27T17:39:18.009Z,4.00
2019-06-27T17:41:47.182Z,3.97
2019-06-27T17:44:19.985Z,3.97
2019-06-27T17:46:47.482Z,4.03
2019-06-27T17:49:23.049Z,4.53
2019-06-27T17:52:00.137Z,3.77
2019-06-27T17:54:38.156Z,3.33
2019-06-27T17:57:10.240Z,3.83
2019-06-27T17:59:39.465Z,3.63
2019-06-27T18:02:10.563Z,3.80
2019-06-27T18:04:39.672Z,3.73
2019-06-27T18:07:14.077Z,3.60
2019-06-27T18:09:42.671Z,4.17
2019-06-27T18:12:11.904Z,3.30
2019-06-27T18:14:42.819Z,3.47
2019-06-27T18:17:14.751Z,3.57
2019-06-27T18:19:48.770Z,3.80
2019-06-27T18:22:25.485Z,2.90
2019-06-27T18:25:03.810Z,3.20
2019-06-27T18:27:35.262Z,3.00
2019-06-27T18:30:04.381Z,2.67
2019-06-27T18:32:33.798Z,2.83
2019-06-27T18:35:03.686Z,2.40
2019-06-27T18:37:35.223Z,2.70
2019-06-27T18:40:08.897Z,2.20
2019-06-27T18:42:41.395Z,2.50
2019-06-27T18:45:17.560Z,2.67
2019-06-27T18:47:46.789Z,2.43
2019-06-27T18:50:16.784Z,2.23
2019-06-27T18:52:47.235Z,1.90
2019-06-27T18:55:20.825Z,2.20
2019-06-27T18:57:49.993Z,1.87
2019-06-27T19:00:21.846Z,1.60
2019-06-27T19:02:51.169Z,1.83
2019-06-27T19:05:21.762Z,1.90
2019-06-27T19:07:52.914Z,1.70
2019-06-27T19:10:31.253Z,1.83
2019-06-27T19:13:00.446Z,1.70
2019-06-27T19:15:30.947Z,1.63
2019-06-27T19:18:04.407Z,1.60
2019-06-27T19:20:42.331Z,1.90
2019-06-27T19:23:39.172Z,1.50
2019-06-27T19:26:08.441Z,1.70
2019-06-27T19:28:38.621Z,1.73
2019-06-27T19:31:10.787Z,1.63
2019-06-27T19:33:40.220Z,1.43
2019-06-27T19:36:12.201Z,2.17
2019-06-27T19:38:47.726Z,1.70
2019-06-27T19:41:16.856Z,1.70
2019-06-27T19:43:46.183Z,1.80
2019-06-27T19:46:15.283Z,1.90
2019-06-27T19:48:45.738Z,1.73
2019-06-27T19:51:16.717Z,2.00
2019-06-27T19:53:47.450Z,1.80
2019-06-27T19:56:17.446Z,1.90
2019-06-27T19:58:46.580Z,1.73
2019-06-27T20:01:15.744Z,1.63
2019-06-27T20:03:45.165Z,1.70
2019-06-27T20:06:17.205Z,1.53
2019-06-27T20:08:48.763Z,1.60
2019-06-27T20:11:17.902Z,1.73
2019-06-27T20:13:47.111Z,1.80
2019-06-27T20:16:16.458Z,1.67
2019-06-27T20:18:45.694Z,2.17
2019-06-27T20:21:16.690Z,1.90
2019-06-27T20:23:46.615Z,1.50
2019-06-27T20:26:18.680Z,1.70
2019-06-27T20:28:51.286Z,2.03
2019-06-27T20:31:20.950Z,1.80
2019-06-27T20:33:50.284Z,1.53
2019-06-27T20:36:20.411Z,1.77
2019-06-27T20:38:49.565Z,1.63
2019-06-27T20:41:18.990Z,1.20
2019-06-27T20:43:53.093Z,1.60
2019-06-27T20:46:22.568Z,1.53
2019-06-27T20:48:54.118Z,1.33
2019-06-27T20:51:30.348Z,1.70
2019-06-27T20:54:03.528Z,1.63
2019-06-27T20:56:32.947Z,1.50
2019-06-27T20:59:02.067Z,2.10
2019-06-27T21:01:31.899Z,1.60
2019-06-27T21:04:01.133Z,1.57
2019-06-27T21:06:33.150Z,1.27
2019-06-27T21:09:02.257Z,1.40
2019-06-27T21:11:31.354Z,1.73
2019-06-27T21:14:00.469Z,1.47
2019-06-27T21:16:29.690Z,1.87
2019-06-27T21:19:01.654Z,1.63
2019-06-27T21:21:30.955Z,1.57
2019-06-27T21:24:01.807Z,1.97
2019-06-27T21:26:32.556Z,1.67
2019-06-27T21:29:01.666Z,1.40
2019-06-27T21:31:30.768Z,1.73
2019-06-27T21:34:02.694Z,1.70
2019-06-27T21:36:31.876Z,2.10
2019-06-27T21:39:07.570Z,1.43
2019-06-27T21:41:35.465Z,1.40
2019-06-27T21:44:06.900Z,1.80
2019-06-27T21:46:37.160Z,2.47
2019-06-27T21:49:06.288Z,1.53
2019-06-27T21:51:35.710Z,1.93
2019-06-27T21:54:04.822Z,1.30
2019-06-27T21:56:36.427Z,1.83
2019-06-27T21:59:05.944Z,1.60
2019-06-27T22:01:35.728Z,1.37
2019-06-27T22:04:05.059Z,1.80
2019-06-27T22:06:36.654Z,1.80
2019-06-27T22:09:24.142Z,1.80
2019-06-27T22:11:44.065Z,1.87
2019-06-27T22:14:14.084Z,1.73
2019-06-27T22:16:45.067Z,1.80
2019-06-27T22:19:16.105Z,1.70
2019-06-27T22:21:46.063Z,1.67
2019-06-27T22:24:16.686Z,1.60
2019-06-27T22:26:46.162Z,1.60
2019-06-27T22:29:18.633Z,2.10
2019-06-27T22:31:51.879Z,1.77
2019-06-27T22:34:25.268Z,2.30
2019-06-27T22:37:03.480Z,1.63
2019-06-27T22:39:53.383Z,1.70
2019-06-27T22:42:41.466Z,1.80
2019-06-27T22:45:28.451Z,1.67
2019-06-27T22:48:12.603Z,1.43
2019-06-27T22:51:12.772Z,1.60
2019-06-27T22:53:56.092Z,1.60
2019-06-27T22:56:28.273Z,1.97
2019-06-27T22:58:59.231Z,1.80
2019-06-27T23:01:29.086Z,1.80
2019-06-27T23:03:59.928Z,1.97
2019-06-27T23:06:30.791Z,1.60
2019-06-27T23:09:04.077Z,1.73
2019-06-27T23:11:36.471Z,1.70
2019-06-27T23:14:10.965Z,1.63
2019-06-27T23:16:44.680Z,1.80
2019-06-27T23:19:14.904Z,2.20
2019-06-27T23:21:46.527Z,1.73
2019-06-27T23:24:16.957Z,1.80
2019-06-27T23:26:46.103Z,2.00
2019-06-27T23:29:18.717Z,2.20
2019-06-27T23:31:51.769Z,2.27
2019-06-27T23:34:20.962Z,1.90
2019-06-27T23:36:51.138Z,1.60
2019-06-27T23:39:21.079Z,2.27
2019-06-27T23:41:51.359Z,1.60
2019-06-27T23:44:20.535Z,2.17
2019-06-27T23:46:53.370Z,1.63
2019-06-27T23:49:26.157Z,2.10
2019-06-27T23:51:58.313Z,2.03
2019-06-27T23:54:28.721Z,2.30
2019-06-27T23:56:57.812Z,2.07
2019-06-27T23:59:28.324Z,2.10
